Cacapava, Brazil
Current Conditions -  °F | °C
As of 10:00 AM on Tuesday 21 Oct 2014 (Local Time) from SBSJ Reporting Station
Broken Clouds Broken Clouds  
Wind Chill: 66°   Ceiling: 2200
Heat Index: 66°   Visibility: 6mi
Dew Point: 59°   Wind: 12mph
Humidity: 78%   Direction: 140°SE
Pressure: 30.21"   Gusts: NA
Location:  23.1°S, 45.71°W
Report Text: SBSJ 211200Z 14010KT 9999 SCT018 BKN022 BKN080 19/15 Q1023
Loading
Personal Weather Stations






























Interactive Weather Map
Tropical Storm Tracking
New forecast layout! Learn more

10-Day Weather Forecast

Advertisements
Track Severe Weather on mobile